sensor_id;sensor_type;location;lat;lon;timestamp;P1;durP1;ratioP1;P2;durP2;ratioP2
65368;SDS011;51970;53.484;49.488;2022-07-22T00:00:12;25.98;;;9.50;;
65368;SDS011;51970;53.484;49.488;2022-07-22T00:02:39;22.95;;;9.73;;
65368;SDS011;51970;53.484;49.488;2022-07-22T00:05:06;20.60;;;8.27;;
65368;SDS011;51970;53.484;49.488;2022-07-22T00:07:32;32.58;;;9.88;;
65368;SDS011;51970;53.484;49.488;2022-07-22T00:09:58;25.52;;;7.57;;
65368;SDS011;51970;53.484;49.488;2022-07-22T00:12:24;21.88;;;8.52;;
65368;SDS011;51970;53.484;49.488;2022-07-22T00:14:51;24.55;;;7.55;;
65368;SDS011;51970;53.484;49.488;2022-07-22T00:17:17;23.55;;;8.48;;
65368;SDS011;51970;53.484;49.488;2022-07-22T00:19:43;20.38;;;7.40;;
65368;SDS011;51970;53.484;49.488;2022-07-22T00:22:09;25.25;;;8.32;;
65368;SDS011;51970;53.484;49.488;2022-07-22T00:24:35;20.65;;;7.85;;
65368;SDS011;51970;53.484;49.488;2022-07-22T00:27:01;22.42;;;8.32;;
65368;SDS011;51970;53.484;49.488;2022-07-22T00:29:27;21.95;;;7.40;;
65368;SDS011;51970;53.484;49.488;2022-07-22T00:31:52;27.40;;;8.57;;
65368;SDS011;51970;53.484;49.488;2022-07-22T00:34:18;26.38;;;8.77;;
65368;SDS011;51970;53.484;49.488;2022-07-22T00:36:44;29.40;;;9.52;;
65368;SDS011;51970;53.484;49.488;2022-07-22T00:39:10;30.13;;;8.77;;
65368;SDS011;51970;53.484;49.488;2022-07-22T00:41:36;24.08;;;9.43;;
65368;SDS011;51970;53.484;49.488;2022-07-22T00:44:04;25.40;;;9.20;;
65368;SDS011;51970;53.484;49.488;2022-07-22T00:46:31;27.05;;;9.52;;
65368;SDS011;51970;53.484;49.488;2022-07-22T00:48:58;25.17;;;8.77;;
65368;SDS011;51970;53.484;49.488;2022-07-22T00:51:25;25.15;;;7.38;;
65368;SDS011;51970;53.484;49.488;2022-07-22T00:53:53;25.42;;;8.80;;
65368;SDS011;51970;53.484;49.488;2022-07-22T00:56:20;26.45;;;8.00;;
65368;SDS011;51970;53.484;49.488;2022-07-22T00:58:47;16.88;;;5.82;;
65368;SDS011;51970;53.484;49.488;2022-07-22T01:01:14;19.05;;;5.68;;
65368;SDS011;51970;53.484;49.488;2022-07-22T01:03:41;20.40;;;7.60;;
65368;SDS011;51970;53.484;49.488;2022-07-22T01:06:07;15.90;;;6.55;;
65368;SDS011;51970;53.484;49.488;2022-07-22T01:08:34;18.25;;;5.65;;
65368;SDS011;51970;53.484;49.488;2022-07-22T01:11:06;17.30;;;5.97;;
65368;SDS011;51970;53.484;49.488;2022-07-22T01:13:34;21.02;;;6.60;;
65368;SDS011;51970;53.484;49.488;2022-07-22T01:16:00;13.02;;;5.35;;
65368;SDS011;51970;53.484;49.488;2022-07-22T01:18:26;15.55;;;5.40;;
65368;SDS011;51970;53.484;49.488;2022-07-22T01:20:52;11.02;;;4.97;;
65368;SDS011;51970;53.484;49.488;2022-07-22T01:23:18;15.52;;;5.40;;
65368;SDS011;51970;53.484;49.488;2022-07-22T01:25:45;17.35;;;5.68;;
65368;SDS011;51970;53.484;49.488;2022-07-22T01:28:10;16.38;;;5.85;;
65368;SDS011;51970;53.484;49.488;2022-07-22T01:30:36;11.30;;;4.78;;
65368;SDS011;51970;53.484;49.488;2022-07-22T01:33:02;14.40;;;5.03;;
65368;SDS011;51970;53.484;49.488;2022-07-22T01:35:28;11.63;;;5.45;;
65368;SDS011;51970;53.484;49.488;2022-07-22T01:37:54;12.98;;;4.80;;
65368;SDS011;51970;53.484;49.488;2022-07-22T01:40:20;8.40;;;3.95;;
65368;SDS011;51970;53.484;49.488;2022-07-22T01:42:47;11.10;;;4.57;;
65368;SDS011;51970;53.484;49.488;2022-07-22T01:45:13;10.15;;;4.10;;
65368;SDS011;51970;53.484;49.488;2022-07-22T01:47:39;12.10;;;4.68;;
65368;SDS011;51970;53.484;49.488;2022-07-22T01:50:05;9.50;;;3.53;;
65368;SDS011;51970;53.484;49.488;2022-07-22T01:52:34;9.32;;;3.50;;
65368;SDS011;51970;53.484;49.488;2022-07-22T01:55:00;9.63;;;3.95;;
65368;SDS011;51970;53.484;49.488;2022-07-22T01:57:26;12.07;;;4.00;;
65368;SDS011;51970;53.484;49.488;2022-07-22T01:59:52;9.88;;;3.60;;
65368;SDS011;51970;53.484;49.488;2022-07-22T02:02:18;10.98;;;4.15;;
65368;SDS011;51970;53.484;49.488;2022-07-22T02:04:44;11.85;;;4.00;;
65368;SDS011;51970;53.484;49.488;2022-07-22T02:07:10;8.32;;;3.40;;
65368;SDS011;51970;53.484;49.488;2022-07-22T02:09:36;9.60;;;4.20;;
65368;SDS011;51970;53.484;49.488;2022-07-22T02:12:02;11.43;;;3.95;;
65368;SDS011;51970;53.484;49.488;2022-07-22T02:14:28;17.70;;;5.35;;
65368;SDS011;51970;53.484;49.488;2022-07-22T02:16:54;18.08;;;6.45;;
65368;SDS011;51970;53.484;49.488;2022-07-22T02:19:20;21.63;;;6.55;;
65368;SDS011;51970;53.484;49.488;2022-07-22T02:21:46;19.02;;;5.60;;
65368;SDS011;51970;53.484;49.488;2022-07-22T02:24:12;11.10;;;3.88;;
65368;SDS011;51970;53.484;49.488;2022-07-22T02:26:38;9.05;;;3.08;;
65368;SDS011;51970;53.484;49.488;2022-07-22T02:29:04;10.32;;;3.35;;
65368;SDS011;51970;53.484;49.488;2022-07-22T02:31:30;9.57;;;4.28;;
65368;SDS011;51970;53.484;49.488;2022-07-22T02:33:56;16.55;;;3.92;;
65368;SDS011;51970;53.484;49.488;2022-07-22T02:36:22;11.35;;;3.63;;
65368;SDS011;51970;53.484;49.488;2022-07-22T02:38:48;8.20;;;3.22;;
65368;SDS011;51970;53.484;49.488;2022-07-22T02:41:14;11.27;;;4.53;;
65368;SDS011;51970;53.484;49.488;2022-07-22T02:43:40;12.35;;;4.60;;
65368;SDS011;51970;53.484;49.488;2022-07-22T02:46:06;14.80;;;4.85;;
65368;SDS011;51970;53.484;49.488;2022-07-22T02:48:32;17.08;;;5.55;;
65368;SDS011;51970;53.484;49.488;2022-07-22T02:50:59;12.65;;;3.80;;
65368;SDS011;51970;53.484;49.488;2022-07-22T02:53:25;11.77;;;3.42;;
65368;SDS011;51970;53.484;49.488;2022-07-22T02:55:51;9.90;;;3.42;;
65368;SDS011;51970;53.484;49.488;2022-07-22T02:58:17;8.95;;;3.35;;
65368;SDS011;51970;53.484;49.488;2022-07-22T03:00:43;6.82;;;2.13;;
65368;SDS011;51970;53.484;49.488;2022-07-22T03:03:09;8.10;;;2.92;;
65368;SDS011;51970;53.484;49.488;2022-07-22T03:05:35;8.98;;;2.53;;
65368;SDS011;51970;53.484;49.488;2022-07-22T03:08:01;9.98;;;2.67;;
65368;SDS011;51970;53.484;49.488;2022-07-22T03:10:27;8.77;;;3.20;;
65368;SDS011;51970;53.484;49.488;2022-07-22T03:12:53;9.07;;;3.22;;
65368;SDS011;51970;53.484;49.488;2022-07-22T03:15:19;7.80;;;2.83;;
65368;SDS011;51970;53.484;49.488;2022-07-22T03:17:45;8.75;;;2.50;;
65368;SDS011;51970;53.484;49.488;2022-07-22T03:20:11;12.35;;;3.17;;
65368;SDS011;51970;53.484;49.488;2022-07-22T03:22:37;15.48;;;2.72;;
65368;SDS011;51970;53.484;49.488;2022-07-22T03:25:04;8.20;;;2.97;;
65368;SDS011;51970;53.484;49.488;2022-07-22T03:27:30;8.57;;;2.72;;
65368;SDS011;51970;53.484;49.488;2022-07-22T03:29:56;7.50;;;2.50;;
65368;SDS011;51970;53.484;49.488;2022-07-22T03:32:22;9.50;;;1.95;;
65368;SDS011;51970;53.484;49.488;2022-07-22T03:34:48;6.72;;;1.55;;
65368;SDS011;51970;53.484;49.488;2022-07-22T03:37:14;10.90;;;1.45;;
65368;SDS011;51970;53.484;49.488;2022-07-22T03:39:40;9.15;;;2.40;;
65368;SDS011;51970;53.484;49.488;2022-07-22T03:42:06;13.00;;;3.05;;
65368;SDS011;51970;53.484;49.488;2022-07-22T03:44:32;11.82;;;2.28;;
65368;SDS011;51970;53.484;49.488;2022-07-22T03:46:58;8.95;;;1.58;;
65368;SDS011;51970;53.484;49.488;2022-07-22T03:49:24;5.28;;;2.13;;
65368;SDS011;51970;53.484;49.488;2022-07-22T03:51:50;7.15;;;2.15;;
65368;SDS011;51970;53.484;49.488;2022-07-22T03:54:16;7.57;;;2.05;;
65368;SDS011;51970;53.484;49.488;2022-07-22T03:56:42;13.13;;;2.40;;
65368;SDS011;51970;53.484;49.488;2022-07-22T03:59:08;10.63;;;2.38;;
65368;SDS011;51970;53.484;49.488;2022-07-22T04:01:34;8.43;;;1.67;;
65368;SDS011;51970;53.484;49.488;2022-07-22T04:04:00;10.15;;;1.83;;
65368;SDS011;51970;53.484;49.488;2022-07-22T04:06:26;6.32;;;2.00;;
65368;SDS011;51970;53.484;49.488;2022-07-22T04:08:53;8.27;;;2.35;;
65368;SDS011;51970;53.484;49.488;2022-07-22T04:11:20;8.27;;;1.83;;
65368;SDS011;51970;53.484;49.488;2022-07-22T04:13:46;7.05;;;1.90;;
65368;SDS011;51970;53.484;49.488;2022-07-22T04:16:12;10.48;;;1.63;;
65368;SDS011;51970;53.484;49.488;2022-07-22T04:18:38;8.60;;;3.15;;
65368;SDS011;51970;53.484;49.488;2022-07-22T04:21:04;12.25;;;1.98;;
65368;SDS011;51970;53.484;49.488;2022-07-22T04:23:30;8.30;;;1.83;;
65368;SDS011;51970;53.484;49.488;2022-07-22T04:25:57;5.90;;;2.17;;
65368;SDS011;51970;53.484;49.488;2022-07-22T04:28:23;5.35;;;1.65;;
65368;SDS011;51970;53.484;49.488;2022-07-22T04:30:49;6.78;;;2.50;;
65368;SDS011;51970;53.484;49.488;2022-07-22T04:33:15;13.43;;;2.10;;
65368;SDS011;51970;53.484;49.488;2022-07-22T04:35:41;12.02;;;2.50;;
65368;SDS011;51970;53.484;49.488;2022-07-22T04:38:07;5.97;;;2.10;;
65368;SDS011;51970;53.484;49.488;2022-07-22T04:40:33;7.07;;;2.35;;
65368;SDS011;51970;53.484;49.488;2022-07-22T04:42:59;11.60;;;3.08;;
65368;SDS011;51970;53.484;49.488;2022-07-22T04:45:25;7.13;;;2.45;;
65368;SDS011;51970;53.484;49.488;2022-07-22T04:47:51;6.57;;;2.25;;
65368;SDS011;51970;53.484;49.488;2022-07-22T04:50:17;10.65;;;1.88;;
65368;SDS011;51970;53.484;49.488;2022-07-22T04:52:43;9.35;;;1.52;;
65368;SDS011;51970;53.484;49.488;2022-07-22T04:55:10;6.43;;;2.22;;
65368;SDS011;51970;53.484;49.488;2022-07-22T04:57:37;13.00;;;2.33;;
65368;SDS011;51970;53.484;49.488;2022-07-22T05:00:03;6.82;;;2.13;;
65368;SDS011;51970;53.484;49.488;2022-07-22T05:02:30;7.63;;;1.98;;
65368;SDS011;51970;53.484;49.488;2022-07-22T05:04:56;5.13;;;1.98;;
65368;SDS011;51970;53.484;49.488;2022-07-22T05:07:21;6.50;;;1.80;;
65368;SDS011;51970;53.484;49.488;2022-07-22T05:09:47;7.38;;;1.75;;
65368;SDS011;51970;53.484;49.488;2022-07-22T05:12:13;6.72;;;1.58;;
65368;SDS011;51970;53.484;49.488;2022-07-22T05:14:40;6.47;;;1.40;;
65368;SDS011;51970;53.484;49.488;2022-07-22T05:17:09;6.45;;;1.80;;
65368;SDS011;51970;53.484;49.488;2022-07-22T05:19:39;7.30;;;1.73;;
65368;SDS011;51970;53.484;49.488;2022-07-22T05:22:06;6.72;;;1.92;;
65368;SDS011;51970;53.484;49.488;2022-07-22T05:24:33;10.23;;;1.65;;
65368;SDS011;51970;53.484;49.488;2022-07-22T05:26:59;7.55;;;2.75;;
65368;SDS011;51970;53.484;49.488;2022-07-22T05:29:25;6.10;;;1.58;;
65368;SDS011;51970;53.484;49.488;2022-07-22T05:31:51;5.88;;;1.75;;
65368;SDS011;51970;53.484;49.488;2022-07-22T05:34:17;7.55;;;1.88;;
65368;SDS011;51970;53.484;49.488;2022-07-22T05:36:43;8.20;;;2.15;;
65368;SDS011;51970;53.484;49.488;2022-07-22T05:39:09;7.82;;;2.03;;
65368;SDS011;51970;53.484;49.488;2022-07-22T05:41:35;16.92;;;2.45;;
65368;SDS011;51970;53.484;49.488;2022-07-22T05:44:02;7.78;;;2.15;;
65368;SDS011;51970;53.484;49.488;2022-07-22T05:46:28;10.13;;;2.13;;
65368;SDS011;51970;53.484;49.488;2022-07-22T05:48:54;12.18;;;2.65;;
65368;SDS011;51970;53.484;49.488;2022-07-22T05:51:20;5.35;;;2.55;;
65368;SDS011;51970;53.484;49.488;2022-07-22T05:53:47;7.15;;;2.15;;
65368;SDS011;51970;53.484;49.488;2022-07-22T05:56:13;8.07;;;2.15;;
65368;SDS011;51970;53.484;49.488;2022-07-22T05:58:39;8.45;;;1.60;;
65368;SDS011;51970;53.484;49.488;2022-07-22T06:01:07;4.82;;;1.80;;
65368;SDS011;51970;53.484;49.488;2022-07-22T06:03:33;4.78;;;1.67;;
65368;SDS011;51970;53.484;49.488;2022-07-22T06:06:00;12.48;;;2.08;;
65368;SDS011;51970;53.484;49.488;2022-07-22T06:08:27;12.98;;;2.72;;
65368;SDS011;51970;53.484;49.488;2022-07-22T06:10:54;7.90;;;2.35;;
65368;SDS011;51970;53.484;49.488;2022-07-22T06:13:20;10.98;;;2.55;;
65368;SDS011;51970;53.484;49.488;2022-07-22T06:15:46;7.53;;;2.03;;
65368;SDS011;51970;53.484;49.488;2022-07-22T06:18:12;9.73;;;1.85;;
65368;SDS011;51970;53.484;49.488;2022-07-22T06:20:38;8.88;;;1.90;;
65368;SDS011;51970;53.484;49.488;2022-07-22T06:23:04;6.57;;;2.10;;
65368;SDS011;51970;53.484;49.488;2022-07-22T06:25:30;6.38;;;2.33;;
65368;SDS011;51970;53.484;49.488;2022-07-22T06:27:56;12.52;;;2.55;;
65368;SDS011;51970;53.484;49.488;2022-07-22T06:30:22;7.43;;;1.58;;
65368;SDS011;51970;53.484;49.488;2022-07-22T06:32:48;7.10;;;1.85;;
65368;SDS011;51970;53.484;49.488;2022-07-22T06:35:14;10.88;;;2.60;;
65368;SDS011;51970;53.484;49.488;2022-07-22T06:37:40;8.70;;;2.75;;
65368;SDS011;51970;53.484;49.488;2022-07-22T06:40:07;7.80;;;2.97;;
65368;SDS011;51970;53.484;49.488;2022-07-22T06:42:33;6.40;;;2.35;;
65368;SDS011;51970;53.484;49.488;2022-07-22T06:44:59;8.65;;;2.45;;
65368;SDS011;51970;53.484;49.488;2022-07-22T06:47:25;7.05;;;1.73;;
65368;SDS011;51970;53.484;49.488;2022-07-22T06:49:51;6.03;;;2.63;;
65368;SDS011;51970;53.484;49.488;2022-07-22T06:52:17;10.18;;;1.63;;
65368;SDS011;51970;53.484;49.488;2022-07-22T06:54:43;8.02;;;2.13;;
65368;SDS011;51970;53.484;49.488;2022-07-22T06:57:09;14.07;;;1.88;;
65368;SDS011;51970;53.484;49.488;2022-07-22T06:59:36;9.38;;;1.73;;
65368;SDS011;51970;53.484;49.488;2022-07-22T07:02:02;11.30;;;2.22;;
65368;SDS011;51970;53.484;49.488;2022-07-22T07:04:28;10.52;;;1.98;;
65368;SDS011;51970;53.484;49.488;2022-07-22T07:06:55;6.38;;;2.28;;
65368;SDS011;51970;53.484;49.488;2022-07-22T07:09:21;10.00;;;1.95;;
65368;SDS011;51970;53.484;49.488;2022-07-22T07:11:47;12.20;;;2.40;;
65368;SDS011;51970;53.484;49.488;2022-07-22T07:14:13;15.82;;;2.63;;
65368;SDS011;51970;53.484;49.488;2022-07-22T07:16:39;10.85;;;2.70;;
65368;SDS011;51970;53.484;49.488;2022-07-22T07:19:05;9.82;;;2.42;;
65368;SDS011;51970;53.484;49.488;2022-07-22T07:21:31;8.27;;;2.05;;
65368;SDS011;51970;53.484;49.488;2022-07-22T07:23:57;8.48;;;1.73;;
65368;SDS011;51970;53.484;49.488;2022-07-22T07:26:25;15.15;;;2.53;;
65368;SDS011;51970;53.484;49.488;2022-07-22T07:28:51;14.05;;;2.58;;
65368;SDS011;51970;53.484;49.488;2022-07-22T07:31:17;14.93;;;2.63;;
65368;SDS011;51970;53.484;49.488;2022-07-22T07:33:43;15.10;;;2.58;;
65368;SDS011;51970;53.484;49.488;2022-07-22T07:36:09;12.85;;;2.58;;
65368;SDS011;51970;53.484;49.488;2022-07-22T07:38:35;14.18;;;3.58;;
65368;SDS011;51970;53.484;49.488;2022-07-22T07:41:02;7.95;;;3.10;;
65368;SDS011;51970;53.484;49.488;2022-07-22T07:43:28;10.13;;;2.47;;
65368;SDS011;51970;53.484;49.488;2022-07-22T07:45:54;11.60;;;2.20;;
65368;SDS011;51970;53.484;49.488;2022-07-22T07:48:20;13.63;;;2.50;;
65368;SDS011;51970;53.484;49.488;2022-07-22T07:50:46;8.68;;;3.30;;
65368;SDS011;51970;53.484;49.488;2022-07-22T07:53:16;11.50;;;2.25;;
65368;SDS011;51970;53.484;49.488;2022-07-22T07:55:42;12.13;;;2.38;;
65368;SDS011;51970;53.484;49.488;2022-07-22T07:58:10;16.83;;;2.47;;
65368;SDS011;51970;53.484;49.488;2022-07-22T08:00:36;8.65;;;2.30;;
65368;SDS011;51970;53.484;49.488;2022-07-22T08:03:03;10.13;;;2.50;;
65368;SDS011;51970;53.484;49.488;2022-07-22T08:05:29;11.43;;;2.95;;
65368;SDS011;51970;53.484;49.488;2022-07-22T08:07:55;18.70;;;3.03;;
65368;SDS011;51970;53.484;49.488;2022-07-22T08:10:22;6.45;;;2.28;;
65368;SDS011;51970;53.484;49.488;2022-07-22T08:12:48;6.35;;;1.70;;
65368;SDS011;51970;53.484;49.488;2022-07-22T08:15:15;4.93;;;1.90;;
65368;SDS011;51970;53.484;49.488;2022-07-22T08:17:41;8.98;;;2.10;;
65368;SDS011;51970;53.484;49.488;2022-07-22T08:20:08;12.77;;;2.03;;
65368;SDS011;51970;53.484;49.488;2022-07-22T08:22:34;20.40;;;3.10;;
65368;SDS011;51970;53.484;49.488;2022-07-22T08:25:00;10.35;;;2.47;;
65368;SDS011;51970;53.484;49.488;2022-07-22T08:27:26;11.15;;;2.88;;
65368;SDS011;51970;53.484;49.488;2022-07-22T08:29:52;13.40;;;2.78;;
65368;SDS011;51970;53.484;49.488;2022-07-22T08:32:18;20.50;;;3.70;;
65368;SDS011;51970;53.484;49.488;2022-07-22T08:34:44;13.13;;;2.30;;
65368;SDS011;51970;53.484;49.488;2022-07-22T08:37:10;10.45;;;2.15;;
65368;SDS011;51970;53.484;49.488;2022-07-22T08:39:36;10.07;;;1.73;;
65368;SDS011;51970;53.484;49.488;2022-07-22T08:42:03;13.73;;;1.70;;
65368;SDS011;51970;53.484;49.488;2022-07-22T08:44:32;7.85;;;1.58;;
65368;SDS011;51970;53.484;49.488;2022-07-22T08:46:59;11.02;;;2.17;;
65368;SDS011;51970;53.484;49.488;2022-07-22T08:49:26;8.88;;;1.75;;
65368;SDS011;51970;53.484;49.488;2022-07-22T08:51:52;7.88;;;1.40;;
65368;SDS011;51970;53.484;49.488;2022-07-22T08:54:19;7.80;;;1.65;;
65368;SDS011;51970;53.484;49.488;2022-07-22T08:56:46;8.60;;;2.33;;
65368;SDS011;51970;53.484;49.488;2022-07-22T08:59:16;10.52;;;2.42;;
65368;SDS011;51970;53.484;49.488;2022-07-22T09:04:54;6.47;;;1.92;;
65368;SDS011;51970;53.484;49.488;2022-07-22T09:07:35;10.85;;;2.88;;
65368;SDS011;51970;53.484;49.488;2022-07-22T09:10:07;5.47;;;1.70;;
65368;SDS011;51970;53.484;49.488;2022-07-22T09:12:49;5.13;;;1.30;;
65368;SDS011;51970;53.484;49.488;2022-07-22T09:15:24;5.53;;;2.03;;
65368;SDS011;51970;53.484;49.488;2022-07-22T09:17:55;8.38;;;1.88;;
65368;SDS011;51970;53.484;49.488;2022-07-22T09:20:22;5.53;;;1.98;;
65368;SDS011;51970;53.484;49.488;2022-07-22T09:22:49;6.90;;;1.80;;
65368;SDS011;51970;53.484;49.488;2022-07-22T09:30:31;9.82;;;1.98;;
65368;SDS011;51970;53.484;49.488;2022-07-22T09:33:01;14.57;;;2.00;;
65368;SDS011;51970;53.484;49.488;2022-07-22T09:35:27;10.93;;;2.42;;
65368;SDS011;51970;53.484;49.488;2022-07-22T09:37:58;9.63;;;2.67;;
65368;SDS011;51970;53.484;49.488;2022-07-22T09:40:26;8.48;;;2.15;;
65368;SDS011;51970;53.484;49.488;2022-07-22T09:42:55;10.52;;;2.15;;
65368;SDS011;51970;53.484;49.488;2022-07-22T09:45:26;7.95;;;2.40;;
65368;SDS011;51970;53.484;49.488;2022-07-22T09:47:54;15.70;;;2.10;;
65368;SDS011;51970;53.484;49.488;2022-07-22T09:52:55;12.25;;;2.15;;
65368;SDS011;51970;53.484;49.488;2022-07-22T09:55:23;10.98;;;2.03;;
65368;SDS011;51970;53.484;49.488;2022-07-22T09:57:51;9.40;;;1.65;;
65368;SDS011;51970;53.484;49.488;2022-07-22T10:00:20;9.88;;;2.42;;
65368;SDS011;51970;53.484;49.488;2022-07-22T10:02:49;6.93;;;1.85;;
65368;SDS011;51970;53.484;49.488;2022-07-22T10:05:23;8.68;;;1.77;;
65368;SDS011;51970;53.484;49.488;2022-07-22T10:07:51;12.02;;;2.17;;
65368;SDS011;51970;53.484;49.488;2022-07-22T10:10:19;10.88;;;2.20;;
65368;SDS011;51970;53.484;49.488;2022-07-22T10:12:48;18.67;;;2.70;;
65368;SDS011;51970;53.484;49.488;2022-07-22T10:15:15;18.80;;;3.67;;
65368;SDS011;51970;53.484;49.488;2022-07-22T10:17:43;7.20;;;1.75;;
65368;SDS011;51970;53.484;49.488;2022-07-22T10:20:16;18.25;;;2.83;;
65368;SDS011;51970;53.484;49.488;2022-07-22T10:22:54;7.78;;;1.33;;
65368;SDS011;51970;53.484;49.488;2022-07-22T10:25:25;18.05;;;3.33;;
65368;SDS011;51970;53.484;49.488;2022-07-22T10:27:55;7.65;;;2.25;;
65368;SDS011;51970;53.484;49.488;2022-07-22T10:30:27;14.45;;;2.60;;
65368;SDS011;51970;53.484;49.488;2022-07-22T10:33:02;10.45;;;2.15;;
65368;SDS011;51970;53.484;49.488;2022-07-22T10:35:30;10.02;;;1.27;;
65368;SDS011;51970;53.484;49.488;2022-07-22T10:37:58;13.25;;;2.65;;
65368;SDS011;51970;53.484;49.488;2022-07-22T10:40:27;12.27;;;2.17;;
65368;SDS011;51970;53.484;49.488;2022-07-22T10:48:00;8.02;;;1.92;;
65368;SDS011;51970;53.484;49.488;2022-07-22T10:53:03;7.32;;;1.75;;
65368;SDS011;51970;53.484;49.488;2022-07-22T10:55:31;8.07;;;2.78;;
65368;SDS011;51970;53.484;49.488;2022-07-22T10:57:58;10.98;;;2.30;;
65368;SDS011;51970;53.484;49.488;2022-07-22T11:00:24;8.88;;;1.73;;
65368;SDS011;51970;53.484;49.488;2022-07-22T11:02:50;7.40;;;1.67;;
65368;SDS011;51970;53.484;49.488;2022-07-22T11:05:26;10.15;;;1.92;;
65368;SDS011;51970;53.484;49.488;2022-07-22T11:07:53;13.63;;;2.28;;
65368;SDS011;51970;53.484;49.488;2022-07-22T11:10:19;12.32;;;1.98;;
65368;SDS011;51970;53.484;49.488;2022-07-22T11:12:46;12.65;;;1.92;;
65368;SDS011;51970;53.484;49.488;2022-07-22T11:15:16;9.43;;;1.75;;
65368;SDS011;51970;53.484;49.488;2022-07-22T11:17:42;7.50;;;2.58;;
65368;SDS011;51970;53.484;49.488;2022-07-22T11:20:09;11.32;;;2.95;;
65368;SDS011;51970;53.484;49.488;2022-07-22T11:22:36;13.30;;;2.30;;
65368;SDS011;51970;53.484;49.488;2022-07-22T11:25:04;8.52;;;2.30;;
65368;SDS011;51970;53.484;49.488;2022-07-22T11:27:32;6.90;;;1.80;;
65368;SDS011;51970;53.484;49.488;2022-07-22T11:29:59;8.82;;;2.42;;
65368;SDS011;51970;53.484;49.488;2022-07-22T11:32:26;17.58;;;2.47;;
65368;SDS011;51970;53.484;49.488;2022-07-22T11:37:23;6.88;;;2.40;;
65368;SDS011;51970;53.484;49.488;2022-07-22T11:39:50;13.93;;;2.17;;
65368;SDS011;51970;53.484;49.488;2022-07-22T11:42:26;9.68;;;2.20;;
65368;SDS011;51970;53.484;49.488;2022-07-22T11:44:52;10.57;;;2.25;;
65368;SDS011;51970;53.484;49.488;2022-07-22T11:47:19;9.00;;;2.35;;
65368;SDS011;51970;53.484;49.488;2022-07-22T11:49:46;12.05;;;2.15;;
65368;SDS011;51970;53.484;49.488;2022-07-22T11:52:14;7.80;;;2.15;;
65368;SDS011;51970;53.484;49.488;2022-07-22T11:54:40;11.38;;;2.88;;
65368;SDS011;51970;53.484;49.488;2022-07-22T11:57:08;9.63;;;1.95;;
65368;SDS011;51970;53.484;49.488;2022-07-22T11:59:34;5.32;;;1.80;;
65368;SDS011;51970;53.484;49.488;2022-07-22T12:02:01;8.60;;;1.80;;
65368;SDS011;51970;53.484;49.488;2022-07-22T12:04:29;8.25;;;1.58;;
65368;SDS011;51970;53.484;49.488;2022-07-22T12:06:57;6.78;;;1.90;;
65368;SDS011;51970;53.484;49.488;2022-07-22T12:09:28;6.13;;;1.42;;
65368;SDS011;51970;53.484;49.488;2022-07-22T12:11:57;8.68;;;2.60;;
65368;SDS011;51970;53.484;49.488;2022-07-22T12:14:24;7.85;;;3.63;;
65368;SDS011;51970;53.484;49.488;2022-07-22T12:17:02;9.65;;;2.20;;
65368;SDS011;51970;53.484;49.488;2022-07-22T12:19:34;7.05;;;1.73;;
65368;SDS011;51970;53.484;49.488;2022-07-22T12:24:32;4.40;;;1.65;;
65368;SDS011;51970;53.484;49.488;2022-07-22T12:27:09;8.68;;;2.08;;
65368;SDS011;51970;53.484;49.488;2022-07-22T12:32:04;10.50;;;2.20;;
65368;SDS011;51970;53.484;49.488;2022-07-22T12:34:39;12.50;;;1.60;;
65368;SDS011;51970;53.484;49.488;2022-07-22T12:37:16;8.85;;;1.80;;
65368;SDS011;51970;53.484;49.488;2022-07-22T12:39:57;9.90;;;1.50;;
65368;SDS011;51970;53.484;49.488;2022-07-22T12:42:26;14.10;;;1.88;;
65368;SDS011;51970;53.484;49.488;2022-07-22T12:45:01;5.13;;;1.58;;
65368;SDS011;51970;53.484;49.488;2022-07-22T12:50:16;11.23;;;1.65;;
65368;SDS011;51970;53.484;49.488;2022-07-22T12:53:04;7.72;;;2.13;;
65368;SDS011;51970;53.484;49.488;2022-07-22T12:55:41;7.68;;;1.42;;
65368;SDS011;51970;53.484;49.488;2022-07-22T12:58:07;8.60;;;1.65;;
65368;SDS011;51970;53.484;49.488;2022-07-22T13:00:35;5.38;;;1.38;;
65368;SDS011;51970;53.484;49.488;2022-07-22T13:03:03;8.55;;;1.30;;
65368;SDS011;51970;53.484;49.488;2022-07-22T13:05:29;6.28;;;1.80;;
65368;SDS011;51970;53.484;49.488;2022-07-22T13:07:56;10.05;;;1.65;;
65368;SDS011;51970;53.484;49.488;2022-07-22T13:10:22;6.80;;;1.73;;
65368;SDS011;51970;53.484;49.488;2022-07-22T13:12:50;5.65;;;1.67;;
65368;SDS011;51970;53.484;49.488;2022-07-22T13:15:17;11.38;;;2.00;;
65368;SDS011;51970;53.484;49.488;2022-07-22T13:17:44;7.82;;;1.73;;
65368;SDS011;51970;53.484;49.488;2022-07-22T13:20:10;11.30;;;1.95;;
65368;SDS011;51970;53.484;49.488;2022-07-22T13:22:39;7.78;;;1.92;;
65368;SDS011;51970;53.484;49.488;2022-07-22T13:25:05;12.60;;;2.45;;
65368;SDS011;51970;53.484;49.488;2022-07-22T13:27:32;6.63;;;2.78;;
65368;SDS011;51970;53.484;49.488;2022-07-22T13:29:58;10.60;;;1.95;;
65368;SDS011;51970;53.484;49.488;2022-07-22T13:32:24;10.20;;;1.90;;
65368;SDS011;51970;53.484;49.488;2022-07-22T13:34:50;12.63;;;2.45;;
65368;SDS011;51970;53.484;49.488;2022-07-22T13:37:17;5.45;;;2.17;;
65368;SDS011;51970;53.484;49.488;2022-07-22T13:39:43;5.53;;;1.35;;
65368;SDS011;51970;53.484;49.488;2022-07-22T13:42:11;7.80;;;1.65;;
65368;SDS011;51970;53.484;49.488;2022-07-22T13:44:38;8.68;;;2.38;;
65368;SDS011;51970;53.484;49.488;2022-07-22T13:47:04;7.55;;;2.08;;
65368;SDS011;51970;53.484;49.488;2022-07-22T13:49:31;14.10;;;1.90;;
65368;SDS011;51970;53.484;49.488;2022-07-22T13:51:57;6.18;;;1.88;;
65368;SDS011;51970;53.484;49.488;2022-07-22T13:54:23;8.18;;;2.17;;
65368;SDS011;51970;53.484;49.488;2022-07-22T13:56:49;5.57;;;2.22;;
65368;SDS011;51970;53.484;49.488;2022-07-22T13:59:15;7.60;;;1.77;;
65368;SDS011;51970;53.484;49.488;2022-07-22T14:01:42;8.65;;;2.20;;
65368;SDS011;51970;53.484;49.488;2022-07-22T14:04:08;8.98;;;2.28;;
65368;SDS011;51970;53.484;49.488;2022-07-22T14:06:35;4.53;;;1.50;;
65368;SDS011;51970;53.484;49.488;2022-07-22T14:09:01;12.57;;;2.15;;
65368;SDS011;51970;53.484;49.488;2022-07-22T14:11:29;6.47;;;1.92;;
65368;SDS011;51970;53.484;49.488;2022-07-22T14:13:55;8.15;;;1.75;;
65368;SDS011;51970;53.484;49.488;2022-07-22T14:16:21;11.32;;;1.88;;
65368;SDS011;51970;53.484;49.488;2022-07-22T14:18:59;7.50;;;1.60;;
65368;SDS011;51970;53.484;49.488;2022-07-22T14:21:29;9.13;;;1.70;;
65368;SDS011;51970;53.484;49.488;2022-07-22T14:23:55;9.35;;;1.92;;
65368;SDS011;51970;53.484;49.488;2022-07-22T14:26:22;10.65;;;1.83;;
65368;SDS011;51970;53.484;49.488;2022-07-22T14:28:48;6.32;;;2.05;;
65368;SDS011;51970;53.484;49.488;2022-07-22T14:31:14;6.55;;;2.15;;
65368;SDS011;51970;53.484;49.488;2022-07-22T14:33:40;15.80;;;2.72;;
65368;SDS011;51970;53.484;49.488;2022-07-22T14:36:07;8.27;;;2.35;;
65368;SDS011;51970;53.484;49.488;2022-07-22T14:38:33;7.88;;;2.15;;
65368;SDS011;51970;53.484;49.488;2022-07-22T14:40:59;7.32;;;2.13;;
65368;SDS011;51970;53.484;49.488;2022-07-22T14:43:25;6.47;;;2.42;;
65368;SDS011;51970;53.484;49.488;2022-07-22T14:45:51;10.75;;;3.17;;
65368;SDS011;51970;53.484;49.488;2022-07-22T14:48:18;9.25;;;3.70;;
65368;SDS011;51970;53.484;49.488;2022-07-22T14:50:44;9.90;;;3.60;;
65368;SDS011;51970;53.484;49.488;2022-07-22T14:53:12;6.65;;;1.77;;
65368;SDS011;51970;53.484;49.488;2022-07-22T14:55:38;7.88;;;2.67;;